createdAt,value
2023-03-29T00:00:21.802Z,49.10
2023-03-29T00:01:36.007Z,48.15
2023-03-29T00:02:39.073Z,48.78
2023-03-29T00:03:44.291Z,48.17
2023-03-29T00:04:47.015Z,48.33
2023-03-29T00:05:49.101Z,48.26
2023-03-29T00:06:51.813Z,48.65
2023-03-29T00:08:01.808Z,49.16
2023-03-29T00:09:05.881Z,49.15
2023-03-29T00:10:10.129Z,49.47
2023-03-29T00:11:12.607Z,48.87
2023-03-29T00:12:15.456Z,48.71
2023-03-29T00:13:18.257Z,49.02
2023-03-29T00:14:20.454Z,48.75
2023-03-29T00:15:22.849Z,49.15
2023-03-29T00:16:24.993Z,49.59
2023-03-29T00:17:27.209Z,49.05
2023-03-29T00:18:29.368Z,48.77
2023-03-29T00:19:35.686Z,48.66
2023-03-29T00:20:37.917Z,49.19
2023-03-29T00:21:40.127Z,48.77
2023-03-29T00:22:43.232Z,49.30
2023-03-29T00:23:45.753Z,49.24
2023-03-29T00:24:49.208Z,49.57
2023-03-29T00:25:53.976Z,49.78
2023-03-29T00:26:56.078Z,50.12
2023-03-29T00:27:58.169Z,50.05
2023-03-29T00:29:00.254Z,50.57
2023-03-29T00:30:04.145Z,51.06
2023-03-29T00:31:12.338Z,50.60
2023-03-29T00:32:15.498Z,50.95
2023-03-29T00:33:20.489Z,50.80
2023-03-29T00:34:26.643Z,51.70
2023-03-29T00:35:28.820Z,51.42
2023-03-29T00:36:31.688Z,50.88
2023-03-29T00:37:33.859Z,51.43
2023-03-29T00:38:36.215Z,51.08
2023-03-29T00:39:42.029Z,51.87
2023-03-29T00:40:47.057Z,52.41
2023-03-29T00:41:50.257Z,52.34
2023-03-29T00:42:52.406Z,53.13
2023-03-29T00:44:03.308Z,52.89
2023-03-29T00:45:13.721Z,52.83
2023-03-29T00:46:15.862Z,53.47
2023-03-29T00:47:21.446Z,53.88
2023-03-29T00:48:27.244Z,54.22
2023-03-29T00:49:29.565Z,53.88
2023-03-29T00:50:38.028Z,54.58
2023-03-29T00:51:41.528Z,54.17
2023-03-29T00:52:48.663Z,55.14
2023-03-29T00:53:53.847Z,55.34
2023-03-29T00:54:59.044Z,55.29
2023-03-29T00:56:14.210Z,55.09
2023-03-29T00:57:17.404Z,55.62
2023-03-29T00:58:31.408Z,55.16
2023-03-29T00:59:35.520Z,54.75
2023-03-29T01:00:42.219Z,53.84
2023-03-29T01:01:54.285Z,53.52
2023-03-29T01:02:59.828Z,53.83
2023-03-29T01:04:09.939Z,53.86
2023-03-29T01:05:35.346Z,54.12
2023-03-29T01:06:39.532Z,54.31
2023-03-29T01:08:06.741Z,53.76
2023-03-29T01:09:10.413Z,53.58
2023-03-29T01:10:22.746Z,53.62
2023-03-29T01:11:34.553Z,53.58
2023-03-29T01:12:41.335Z,54.16
2023-03-29T01:13:47.734Z,54.36
2023-03-29T01:14:59.917Z,54.02
2023-03-29T01:16:02.847Z,54.41
2023-03-29T01:17:05.839Z,54.33
2023-03-29T01:18:08.886Z,54.46
2023-03-29T01:19:14.072Z,54.44
2023-03-29T01:20:28.415Z,54.37
2023-03-29T01:21:39.771Z,54.44
2023-03-29T01:22:51.478Z,54.33
2023-03-29T01:24:07.024Z,54.48
2023-03-29T01:25:12.533Z,54.67
2023-03-29T01:27:01.990Z,54.64
2023-03-29T01:28:07.505Z,54.62
2023-03-29T01:29:17.751Z,54.42
2023-03-29T01:30:26.228Z,54.26
2023-03-29T01:31:37.524Z,54.43
2023-03-29T01:32:42.561Z,54.97
2023-03-29T01:33:49.052Z,54.52
2023-03-29T01:35:02.182Z,54.50
2023-03-29T01:36:14.463Z,54.84
2023-03-29T01:37:27.893Z,54.56
2023-03-29T01:38:49.833Z,55.16
2023-03-29T01:39:52.877Z,55.14
2023-03-29T01:40:54.984Z,55.57
2023-03-29T01:42:11.955Z,55.54
2023-03-29T01:43:22.631Z,55.53
2023-03-29T01:44:32.042Z,55.08
2023-03-29T01:45:47.061Z,55.39
2023-03-29T01:46:54.935Z,55.37
2023-03-29T01:48:17.376Z,55.30
2023-03-29T01:49:28.300Z,55.52
2023-03-29T01:50:42.443Z,55.62
2023-03-29T01:51:49.808Z,55.73
2023-03-29T01:52:59.398Z,55.86
2023-03-29T01:54:03.511Z,55.76
2023-03-29T01:55:11.626Z,55.31
2023-03-29T01:56:17.151Z,55.61
2023-03-29T01:57:20.016Z,55.52
2023-03-29T01:58:24.413Z,55.83
2023-03-29T01:59:29.476Z,55.81
2023-03-29T02:00:32.845Z,55.86
2023-03-29T02:01:39.000Z,56.46
2023-03-29T02:02:42.589Z,56.21
2023-03-29T02:03:49.887Z,56.16
2023-03-29T02:04:54.134Z,55.39
2023-03-29T02:05:57.425Z,56.23
2023-03-29T02:07:00.691Z,55.71
2023-03-29T02:08:05.407Z,56.01
2023-03-29T02:09:07.696Z,55.86
2023-03-29T02:10:11.629Z,56.61
2023-03-29T02:11:14.158Z,56.56
2023-03-29T02:12:17.187Z,56.50
2023-03-29T02:13:19.842Z,56.62
2023-03-29T02:14:22.034Z,56.55
2023-03-29T02:15:24.358Z,56.97
2023-03-29T02:16:26.666Z,55.95
2023-03-29T02:17:28.954Z,56.04
2023-03-29T02:18:31.409Z,56.13
2023-03-29T02:19:34.404Z,56.27
2023-03-29T02:20:39.172Z,57.39
2023-03-29T02:21:44.257Z,56.71
2023-03-29T02:23:09.805Z,57.28
2023-03-29T02:24:13.382Z,57.85
2023-03-29T02:25:16.222Z,58.66
2023-03-29T02:26:19.607Z,58.55
2023-03-29T02:27:21.956Z,57.97
2023-03-29T02:28:24.825Z,58.45
2023-03-29T02:29:27.395Z,59.03
2023-03-29T02:30:39.137Z,57.92
2023-03-29T02:31:44.930Z,58.04
2023-03-29T02:33:02.234Z,59.04
2023-03-29T02:34:11.522Z,59.37
2023-03-29T02:35:18.232Z,59.66
2023-03-29T02:36:29.540Z,59.47
2023-03-29T02:37:31.593Z,59.36
2023-03-29T02:38:34.236Z,58.72
2023-03-29T02:39:36.520Z,58.83
2023-03-29T02:40:39.451Z,58.95
2023-03-29T02:41:44.423Z,58.09
2023-03-29T02:42:46.511Z,57.39
2023-03-29T02:43:49.121Z,57.16
2023-03-29T02:44:53.797Z,57.43
2023-03-29T02:45:56.123Z,57.27
2023-03-29T02:47:02.286Z,58.24
2023-03-29T02:48:08.439Z,57.13
2023-03-29T02:49:11.151Z,57.99
2023-03-29T02:50:13.401Z,58.47
2023-03-29T02:51:20.270Z,58.35
2023-03-29T02:52:25.893Z,57.56
2023-03-29T02:53:32.433Z,57.71
2023-03-29T02:54:34.686Z,57.94
2023-03-29T02:55:39.017Z,58.02
2023-03-29T02:56:47.753Z,58.19
2023-03-29T02:57:49.938Z,57.79
2023-03-29T02:58:52.054Z,58.34
2023-03-29T02:59:55.424Z,58.53
2023-03-29T03:00:59.309Z,57.82
2023-03-29T03:02:01.835Z,57.68
2023-03-29T03:03:08.094Z,57.70
2023-03-29T03:04:11.610Z,57.76
2023-03-29T03:05:13.824Z,57.54
2023-03-29T03:06:16.322Z,57.78
2023-03-29T03:07:20.013Z,57.79
2023-03-29T03:08:22.142Z,57.80
2023-03-29T03:09:24.310Z,57.56
2023-03-29T03:10:26.457Z,57.82
2023-03-29T03:11:28.620Z,57.94
2023-03-29T03:12:31.035Z,57.81
2023-03-29T03:13:33.213Z,57.70
2023-03-29T03:14:35.339Z,58.03
2023-03-29T03:15:38.820Z,57.55
2023-03-29T03:16:41.121Z,57.94
2023-03-29T03:17:46.602Z,58.24
2023-03-29T03:18:50.924Z,58.20
2023-03-29T03:19:53.293Z,58.49
2023-03-29T03:20:57.215Z,58.60
2023-03-29T03:21:59.772Z,58.17
2023-03-29T03:23:03.435Z,58.19
2023-03-29T03:24:07.696Z,58.93
2023-03-29T03:25:13.173Z,58.51
2023-03-29T03:26:16.551Z,58.32
2023-03-29T03:27:18.721Z,58.56
2023-03-29T03:28:22.103Z,58.40
2023-03-29T03:29:25.592Z,58.64
2023-03-29T03:30:28.870Z,58.50
2023-03-29T03:31:31.189Z,58.30
2023-03-29T03:32:36.524Z,58.93
2023-03-29T03:33:38.843Z,58.83
2023-03-29T03:34:41.015Z,58.86
2023-03-29T03:35:46.361Z,59.11
2023-03-29T03:36:48.567Z,59.10
2023-03-29T03:37:50.789Z,59.17
2023-03-29T03:38:53.259Z,59.54
2023-03-29T03:39:55.376Z,59.04
2023-03-29T03:40:58.217Z,59.56
2023-03-29T03:42:00.402Z,60.34
2023-03-29T03:43:02.609Z,60.06
2023-03-29T03:44:04.882Z,59.03
2023-03-29T03:45:08.558Z,59.57
2023-03-29T03:46:10.755Z,59.64
2023-03-29T03:47:14.753Z,59.77
2023-03-29T03:48:17.689Z,59.39
2023-03-29T03:49:21.046Z,59.73
2023-03-29T03:50:24.380Z,59.55
2023-03-29T03:51:27.200Z,59.97
2023-03-29T03:52:29.478Z,59.47
2023-03-29T03:53:31.588Z,60.02
2023-03-29T03:54:34.087Z,60.10
2023-03-29T03:55:36.236Z,60.28
2023-03-29T03:56:38.415Z,60.29
2023-03-29T03:57:40.620Z,60.53
2023-03-29T03:58:42.758Z,60.38
2023-03-29T03:59:44.872Z,60.67
2023-03-29T04:00:50.753Z,60.93
2023-03-29T04:01:52.960Z,60.74
2023-03-29T04:02:56.359Z,60.48
2023-03-29T04:03:58.760Z,60.42
2023-03-29T04:05:03.355Z,60.50
2023-03-29T04:06:05.986Z,60.90
2023-03-29T04:07:08.506Z,61.11
2023-03-29T04:08:13.587Z,60.99
2023-03-29T04:09:15.736Z,60.91
2023-03-29T04:10:18.068Z,60.29
2023-03-29T04:11:20.204Z,61.36
2023-03-29T04:12:22.302Z,61.63
2023-03-29T04:13:25.660Z,61.69
2023-03-29T04:14:28.222Z,62.07
2023-03-29T04:15:31.548Z,61.90
2023-03-29T04:16:33.704Z,62.25
2023-03-29T04:17:36.221Z,62.49
2023-03-29T04:18:38.481Z,62.15
2023-03-29T04:19:40.857Z,62.34
2023-03-29T04:20:43.991Z,63.09
2023-03-29T04:21:47.641Z,63.95
2023-03-29T04:22:50.470Z,63.96
2023-03-29T04:23:52.688Z,64.28
2023-03-29T04:24:55.217Z,64.32
2023-03-29T04:25:57.381Z,64.88
2023-03-29T04:26:59.480Z,64.96
2023-03-29T04:28:01.974Z,64.95
2023-03-29T04:29:04.970Z,64.91
2023-03-29T04:30:08.153Z,64.91
2023-03-29T04:31:12.164Z,64.62
2023-03-29T04:32:14.295Z,64.83
2023-03-29T04:33:16.456Z,64.38
2023-03-29T04:34:18.549Z,65.04
2023-03-29T04:36:23.052Z,65.11
2023-03-29T04:37:25.186Z,64.33
2023-03-29T04:38:27.286Z,64.19
2023-03-29T04:39:34.060Z,64.49
2023-03-29T04:40:36.467Z,64.50
2023-03-29T04:41:39.179Z,63.48
2023-03-29T04:42:45.882Z,64.10
2023-03-29T04:43:48.106Z,63.69
2023-03-29T04:44:50.263Z,63.08
2023-03-29T04:45:52.488Z,62.88
2023-03-29T04:46:54.712Z,61.91
2023-03-29T04:47:59.662Z,63.96
2023-03-29T04:49:01.711Z,63.62
2023-03-29T04:50:04.084Z,62.80
2023-03-29T04:51:06.374Z,62.40
2023-03-29T04:52:09.184Z,62.12
2023-03-29T04:53:11.602Z,61.55
2023-03-29T04:54:13.696Z,62.38
2023-03-29T04:55:15.866Z,62.06
2023-03-29T04:56:18.029Z,61.58
2023-03-29T04:57:20.155Z,60.92
2023-03-29T04:58:24.408Z,60.94
2023-03-29T04:59:28.269Z,60.12
2023-03-29T05:00:31.612Z,59.60
2023-03-29T05:01:33.766Z,60.96
2023-03-29T05:02:36.807Z,59.01
2023-03-29T05:03:39.025Z,60.10
2023-03-29T05:04:41.169Z,57.95
2023-03-29T05:05:43.626Z,56.58
2023-03-29T05:06:45.762Z,54.95
2023-03-29T05:07:48.071Z,54.76
2023-03-29T05:08:50.280Z,56.03
2023-03-29T05:09:52.803Z,56.34
2023-03-29T05:10:54.937Z,56.19
2023-03-29T05:11:57.068Z,56.56
2023-03-29T05:12:59.404Z,55.81
2023-03-29T05:14:03.427Z,55.28
2023-03-29T05:15:06.190Z,55.47
2023-03-29T05:16:08.912Z,54.70
2023-03-29T05:17:11.036Z,54.52
2023-03-29T05:18:13.521Z,54.46
2023-03-29T05:19:15.817Z,54.39
2023-03-29T05:20:18.097Z,53.63
2023-03-29T05:21:20.617Z,54.37
2023-03-29T05:22:23.499Z,52.20
2023-03-29T05:23:26.065Z,51.24
2023-03-29T05:24:28.187Z,51.81
2023-03-29T05:25:30.348Z,51.16
2023-03-29T05:26:32.506Z,50.19
2023-03-29T05:27:34.967Z,50.78
2023-03-29T05:28:37.101Z,50.94
2023-03-29T05:29:39.276Z,50.49
2023-03-29T05:30:41.566Z,49.87
2023-03-29T05:31:43.885Z,50.35
2023-03-29T05:32:46.952Z,49.46
2023-03-29T05:33:49.842Z,49.72
2023-03-29T05:34:52.938Z,49.47
2023-03-29T05:36:02.154Z,48.15
2023-03-29T05:37:04.460Z,47.69
2023-03-29T05:38:06.745Z,47.57
2023-03-29T05:39:10.947Z,48.43
2023-03-29T05:40:13.481Z,47.55
2023-03-29T05:41:16.342Z,46.58
2023-03-29T05:42:22.404Z,47.27
2023-03-29T05:43:24.569Z,47.59
2023-03-29T05:44:26.937Z,47.73
2023-03-29T05:45:29.900Z,48.36
2023-03-29T05:46:32.145Z,48.33
2023-03-29T05:47:34.306Z,48.32
2023-03-29T05:48:36.565Z,47.26
2023-03-29T05:49:38.724Z,47.84
2023-03-29T05:50:40.827Z,48.26
2023-03-29T05:51:45.729Z,48.71
2023-03-29T05:52:47.905Z,47.73
2023-03-29T05:53:51.347Z,47.96
2023-03-29T05:54:53.476Z,47.12
2023-03-29T05:55:56.099Z,45.74
2023-03-29T05:56:58.311Z,46.51
2023-03-29T05:58:01.147Z,46.43
2023-03-29T05:59:03.284Z,46.07
2023-03-29T06:00:25.748Z,46.25
2023-03-29T06:01:28.617Z,47.11
2023-03-29T06:02:31.556Z,46.69
2023-03-29T06:03:34.033Z,46.72
2023-03-29T06:04:36.666Z,46.30
2023-03-29T06:05:39.330Z,46.45
2023-03-29T06:06:42.103Z,47.08
2023-03-29T06:07:44.301Z,49.84
2023-03-29T06:08:46.486Z,49.58
2023-03-29T06:09:48.588Z,49.59
2023-03-29T06:10:51.900Z,48.94
2023-03-29T06:11:56.448Z,49.73
2023-03-29T06:12:59.149Z,48.69
2023-03-29T06:14:02.508Z,48.09
2023-03-29T06:15:05.543Z,47.84
2023-03-29T06:16:09.284Z,47.42
2023-03-29T06:17:11.456Z,47.45
2023-03-29T06:18:13.667Z,47.27
2023-03-29T06:19:16.070Z,45.56
2023-03-29T06:20:18.540Z,46.01
2023-03-29T06:21:21.162Z,45.13
2023-03-29T06:22:23.609Z,45.76
2023-03-29T06:23:25.979Z,46.11
2023-03-29T06:24:28.244Z,46.34
2023-03-29T06:25:30.377Z,45.78
2023-03-29T06:26:32.508Z,46.53
2023-03-29T06:27:34.935Z,47.13
2023-03-29T06:28:37.286Z,48.78
2023-03-29T06:29:39.549Z,47.83
2023-03-29T06:30:42.246Z,46.59
2023-03-29T06:31:45.454Z,44.86
2023-03-29T06:32:49.655Z,44.05
2023-03-29T06:33:51.861Z,43.77
2023-03-29T06:34:54.527Z,43.92
2023-03-29T06:35:57.469Z,42.33
2023-03-29T06:36:59.647Z,41.83
2023-03-29T06:38:03.243Z,41.82
2023-03-29T06:39:08.766Z,40.75
2023-03-29T06:40:11.315Z,41.32
2023-03-29T06:41:13.654Z,40.62
2023-03-29T06:42:21.122Z,40.55
2023-03-29T06:43:23.855Z,41.23
2023-03-29T06:44:28.407Z,40.87
2023-03-29T06:45:36.322Z,41.76
2023-03-29T06:46:38.513Z,40.70
2023-03-29T06:47:41.075Z,40.39
2023-03-29T06:48:43.295Z,39.60
2023-03-29T06:49:45.577Z,38.85
2023-03-29T06:50:48.603Z,39.27
2023-03-29T06:51:50.709Z,39.29
2023-03-29T06:52:52.974Z,39.71
2023-03-29T06:53:55.186Z,39.69
2023-03-29T06:54:57.378Z,39.67
2023-03-29T06:55:59.823Z,39.76
2023-03-29T06:57:02.706Z,40.04
2023-03-29T06:58:04.924Z,40.04
2023-03-29T06:59:07.089Z,40.22
2023-03-29T07:00:27.866Z,39.98
2023-03-29T07:01:30.169Z,39.45
2023-03-29T07:02:32.375Z,39.19
2023-03-29T07:03:36.043Z,38.30
2023-03-29T07:04:38.816Z,38.20
2023-03-29T07:05:41.749Z,38.35
2023-03-29T07:06:48.494Z,38.28
2023-03-29T07:07:55.118Z,38.26
2023-03-29T07:08:59.844Z,38.65
2023-03-29T07:10:01.948Z,38.86
2023-03-29T07:11:04.555Z,38.56
2023-03-29T07:12:07.090Z,38.21
2023-03-29T07:13:13.913Z,38.16
2023-03-29T07:14:17.836Z,37.74
2023-03-29T07:15:21.488Z,37.33
2023-03-29T07:16:23.698Z,38.01
2023-03-29T07:17:25.910Z,37.70
2023-03-29T07:18:27.996Z,37.61
2023-03-29T07:19:30.448Z,38.07
2023-03-29T07:20:33.811Z,37.87
2023-03-29T07:21:37.837Z,36.86
2023-03-29T07:22:44.124Z,36.90
2023-03-29T07:23:46.203Z,37.09
2023-03-29T07:24:49.368Z,36.14
2023-03-29T07:25:51.557Z,36.78
2023-03-29T07:27:03.214Z,37.09
2023-03-29T07:28:06.821Z,36.77
2023-03-29T07:29:09.409Z,37.04
2023-03-29T07:30:16.560Z,36.54
2023-03-29T07:31:18.745Z,36.75
2023-03-29T07:32:21.439Z,36.88
2023-03-29T07:33:24.329Z,36.96
2023-03-29T07:34:27.269Z,36.85
2023-03-29T07:35:30.863Z,37.70
2023-03-29T07:36:34.412Z,37.42
2023-03-29T07:37:37.535Z,36.53
2023-03-29T07:38:39.681Z,36.30
2023-03-29T07:39:41.829Z,37.51
2023-03-29T07:40:44.008Z,36.80
2023-03-29T07:41:46.145Z,36.30
2023-03-29T07:42:52.598Z,36.53
2023-03-29T07:43:55.891Z,35.93
2023-03-29T07:44:58.651Z,36.04
2023-03-29T07:46:02.116Z,35.38
2023-03-29T07:47:05.539Z,35.02
2023-03-29T07:48:08.593Z,34.55
2023-03-29T07:49:10.759Z,34.94
2023-03-29T07:50:14.481Z,33.77
2023-03-29T07:51:16.980Z,33.71
2023-03-29T07:52:19.156Z,33.46
2023-03-29T07:53:21.773Z,32.60
2023-03-29T07:54:24.154Z,32.86
2023-03-29T07:55:26.685Z,32.70
2023-03-29T07:56:28.829Z,32.66
2023-03-29T07:57:31.000Z,31.71
2023-03-29T07:58:33.268Z,31.28
2023-03-29T07:59:35.471Z,32.03
2023-03-29T08:00:38.227Z,31.85
2023-03-29T08:01:41.271Z,31.93
2023-03-29T08:02:44.769Z,32.05
2023-03-29T08:03:47.357Z,30.81
2023-03-29T08:04:49.748Z,30.95
2023-03-29T08:05:52.070Z,30.53
2023-03-29T08:06:55.520Z,31.44
2023-03-29T08:07:57.702Z,30.70
2023-03-29T08:09:00.186Z,31.16
2023-03-29T08:10:03.284Z,31.10
2023-03-29T08:11:08.878Z,31.52
2023-03-29T08:12:11.168Z,31.52
2023-03-29T08:13:13.492Z,31.74
2023-03-29T08:14:15.635Z,32.24
2023-03-29T08:15:17.956Z,31.49
2023-03-29T08:16:20.075Z,32.22
2023-03-29T08:17:22.210Z,31.73
2023-03-29T08:18:24.328Z,32.33
2023-03-29T08:19:27.174Z,31.70
2023-03-29T08:20:29.457Z,32.01
2023-03-29T08:21:31.797Z,32.17
2023-03-29T08:22:34.570Z,31.50
2023-03-29T08:23:36.699Z,30.91
2023-03-29T08:24:38.829Z,30.69
2023-03-29T08:25:41.452Z,30.51
2023-03-29T08:26:43.597Z,30.51
2023-03-29T08:27:45.719Z,30.31
2023-03-29T08:28:47.866Z,29.64
2023-03-29T08:29:49.985Z,29.45
2023-03-29T08:30:52.850Z,29.63
2023-03-29T08:31:56.446Z,29.75
2023-03-29T08:32:58.650Z,30.43
2023-03-29T08:34:00.796Z,29.01
2023-03-29T08:35:04.941Z,29.30
2023-03-29T08:36:07.379Z,27.67
2023-03-29T08:37:09.850Z,28.01
2023-03-29T08:38:12.596Z,28.56
2023-03-29T08:39:15.221Z,28.67
2023-03-29T08:40:22.063Z,28.75
2023-03-29T08:41:49.743Z,27.34
2023-03-29T08:43:17.757Z,26.06
2023-03-29T08:44:20.561Z,25.44
2023-03-29T08:45:27.834Z,26.15
2023-03-29T08:46:37.790Z,25.85
2023-03-29T08:48:07.625Z,26.47
2023-03-29T08:49:11.066Z,27.74
2023-03-29T08:50:14.132Z,26.22
2023-03-29T08:51:25.309Z,26.51
2023-03-29T08:52:27.409Z,26.08
2023-03-29T08:53:34.062Z,25.39
2023-03-29T08:54:45.835Z,25.81
2023-03-29T08:55:49.148Z,24.98
2023-03-29T08:56:52.906Z,25.22
2023-03-29T08:57:55.889Z,25.37
2023-03-29T08:58:58.586Z,25.57
2023-03-29T09:00:04.593Z,26.31
2023-03-29T09:01:09.315Z,27.01
2023-03-29T09:02:15.119Z,25.72
2023-03-29T09:03:27.276Z,26.29
2023-03-29T09:04:33.163Z,26.18
2023-03-29T09:05:38.858Z,25.90
2023-03-29T09:06:41.127Z,25.83
2023-03-29T09:07:43.278Z,26.29
2023-03-29T09:08:47.610Z,26.29
2023-03-29T09:09:50.302Z,25.69
2023-03-29T09:11:01.711Z,25.33
2023-03-29T09:12:22.642Z,25.05
2023-03-29T09:13:34.831Z,25.39
2023-03-29T09:14:48.664Z,25.27
2023-03-29T09:16:13.872Z,24.64
2023-03-29T09:17:39.513Z,23.91
2023-03-29T09:18:47.519Z,24.27
2023-03-29T09:20:03.280Z,25.95
2023-03-29T09:21:44.059Z,25.13
2023-03-29T09:22:58.085Z,24.25
2023-03-29T09:24:32.568Z,24.50
2023-03-29T09:25:56.590Z,23.92
2023-03-29T09:27:08.620Z,24.75
2023-03-29T09:28:10.687Z,24.46
2023-03-29T09:29:37.454Z,24.58
2023-03-29T09:30:49.429Z,24.96
2023-03-29T09:31:52.991Z,24.71
2023-03-29T09:33:10.298Z,24.91
2023-03-29T09:34:23.018Z,25.31
2023-03-29T09:35:29.118Z,25.66
2023-03-29T09:36:40.625Z,25.84
2023-03-29T09:37:42.818Z,25.82
2023-03-29T09:38:48.103Z,26.00
2023-03-29T09:39:53.146Z,26.23
2023-03-29T09:40:58.100Z,26.91
2023-03-29T09:42:05.202Z,26.69
2023-03-29T09:43:13.065Z,26.12
2023-03-29T09:44:30.228Z,25.69
2023-03-29T09:45:33.458Z,25.89
2023-03-29T09:46:50.940Z,24.80
2023-03-29T09:47:57.709Z,24.54
2023-03-29T09:49:01.535Z,24.62
2023-03-29T09:50:27.693Z,24.00
2023-03-29T09:51:33.195Z,24.70
2023-03-29T09:52:35.490Z,24.48
2023-03-29T09:53:37.619Z,25.29
2023-03-29T09:54:40.064Z,24.88
2023-03-29T09:55:43.255Z,24.38
2023-03-29T09:56:45.554Z,24.39
2023-03-29T09:57:47.735Z,23.54
2023-03-29T09:58:49.959Z,23.74
2023-03-29T09:59:52.688Z,24.08
2023-03-29T10:00:59.101Z,23.55
2023-03-29T10:02:09.483Z,23.30
2023-03-29T10:03:23.112Z,23.49
2023-03-29T10:04:26.318Z,22.98
2023-03-29T10:05:31.845Z,23.32
2023-03-29T10:06:36.969Z,23.98
2023-03-29T10:07:44.796Z,24.42
2023-03-29T10:08:51.820Z,25.14
2023-03-29T10:09:56.016Z,24.62
2023-03-29T10:10:59.557Z,23.34
2023-03-29T10:12:03.249Z,22.64
2023-03-29T10:13:07.454Z,22.69
2023-03-29T10:14:16.822Z,23.28
2023-03-29T10:15:29.206Z,22.90
2023-03-29T10:16:38.874Z,22.89
2023-03-29T10:17:41.182Z,22.80
2023-03-29T10:18:43.747Z,21.85
2023-03-29T10:19:55.716Z,22.08
2023-03-29T10:21:00.178Z,21.93
2023-03-29T10:22:13.874Z,21.61
2023-03-29T10:23:18.535Z,23.01
2023-03-29T10:24:24.934Z,22.80
2023-03-29T10:25:30.517Z,22.45
2023-03-29T10:26:33.993Z,21.83
2023-03-29T10:27:36.294Z,21.32
2023-03-29T10:28:38.642Z,21.71
2023-03-29T10:29:42.431Z,22.70
2023-03-29T10:30:48.668Z,22.85
2023-03-29T10:31:51.990Z,22.04
2023-03-29T10:32:58.877Z,21.71
2023-03-29T10:34:03.727Z,22.22
2023-03-29T10:35:13.008Z,20.13
2023-03-29T10:36:15.511Z,20.97
2023-03-29T10:37:19.398Z,20.67
2023-03-29T10:38:23.395Z,20.74
2023-03-29T10:39:28.339Z,21.40
2023-03-29T10:40:51.778Z,20.43
2023-03-29T10:41:54.199Z,20.76
2023-03-29T10:43:01.306Z,20.94
2023-03-29T10:44:03.730Z,21.26
2023-03-29T10:45:29.585Z,20.58
2023-03-29T10:46:40.296Z,19.71
2023-03-29T10:47:44.966Z,20.67
2023-03-29T10:48:48.403Z,21.67
2023-03-29T10:49:57.125Z,22.03
2023-03-29T10:51:01.768Z,21.52
2023-03-29T10:52:06.758Z,20.51
2023-03-29T10:53:21.580Z,19.74
2023-03-29T10:54:24.484Z,21.59
2023-03-29T10:55:35.252Z,20.44
2023-03-29T10:56:52.782Z,21.07
2023-03-29T10:58:11.192Z,19.91
2023-03-29T10:59:23.440Z,19.04
2023-03-29T11:00:37.250Z,19.67
2023-03-29T11:01:57.106Z,18.78
2023-03-29T11:03:16.656Z,18.55
2023-03-29T11:04:34.455Z,19.90
2023-03-29T11:05:47.201Z,19.50
2023-03-29T11:07:14.341Z,19.38
2023-03-29T11:08:32.136Z,20.19
2023-03-29T11:09:47.821Z,19.80
2023-03-29T11:11:09.831Z,20.16
2023-03-29T11:12:38.493Z,20.48
2023-03-29T11:14:05.341Z,19.51
2023-03-29T11:15:25.479Z,19.96
2023-03-29T11:16:30.588Z,18.46
2023-03-29T11:17:59.717Z,17.98
2023-03-29T11:19:04.518Z,18.63
2023-03-29T11:20:15.972Z,19.64
2023-03-29T11:21:36.099Z,19.44
2023-03-29T11:23:17.248Z,19.75
2023-03-29T11:24:50.153Z,18.20
2023-03-29T11:26:13.607Z,19.06
2023-03-29T11:27:33.544Z,18.35
2023-03-29T11:28:53.028Z,18.02
2023-03-29T11:29:57.104Z,17.65
2023-03-29T11:31:17.592Z,17.27
2023-03-29T11:32:33.546Z,18.45
2023-03-29T11:34:00.360Z,19.65
2023-03-29T11:35:29.606Z,19.29
2023-03-29T11:36:50.655Z,19.35
2023-03-29T11:38:14.452Z,19.10
2023-03-29T11:39:42.702Z,19.69
2023-03-29T11:40:44.778Z,20.60
2023-03-29T11:41:50.259Z,19.98
2023-03-29T11:42:54.972Z,20.43
2023-03-29T11:44:02.635Z,20.48
2023-03-29T11:45:05.681Z,21.01
2023-03-29T11:46:21.840Z,22.85
2023-03-29T11:47:28.886Z,22.63
2023-03-29T11:48:51.359Z,23.09
2023-03-29T11:49:57.829Z,22.21
2023-03-29T11:51:23.478Z,21.50
2023-03-29T11:52:30.159Z,20.59
2023-03-29T11:53:44.788Z,20.17
2023-03-29T11:54:59.117Z,20.08
2023-03-29T11:56:11.826Z,19.66
2023-03-29T11:57:28.948Z,19.82
2023-03-29T11:58:38.275Z,19.13
2023-03-29T11:59:45.568Z,19.08
2023-03-29T12:00:57.973Z,19.08
2023-03-29T12:02:46.541Z,18.53
2023-03-29T12:03:56.397Z,18.76
2023-03-29T12:05:01.347Z,19.23
2023-03-29T12:06:13.224Z,19.08
2023-03-29T12:07:19.656Z,19.32
2023-03-29T12:08:41.968Z,19.41
2023-03-29T12:10:05.593Z,19.02
2023-03-29T12:11:23.333Z,19.06
2023-03-29T12:12:45.069Z,19.78
2023-03-29T12:14:04.410Z,19.42
2023-03-29T12:15:20.204Z,19.07
2023-03-29T12:16:32.422Z,18.79
2023-03-29T12:17:40.022Z,18.83
2023-03-29T12:18:47.018Z,18.27
2023-03-29T12:19:57.679Z,18.66
2023-03-29T12:21:02.416Z,18.62
2023-03-29T12:22:07.918Z,18.82
2023-03-29T12:23:13.453Z,18.62
2023-03-29T12:24:17.223Z,19.57
2023-03-29T12:25:24.536Z,19.76
2023-03-29T12:26:33.754Z,20.41
2023-03-29T12:27:52.473Z,19.68
2023-03-29T12:29:07.342Z,20.16
2023-03-29T12:30:54.964Z,18.68
2023-03-29T12:31:59.757Z,18.94
2023-03-29T12:33:07.435Z,19.76
2023-03-29T12:34:29.654Z,19.56
2023-03-29T12:36:05.950Z,20.01
2023-03-29T12:37:23.550Z,19.81
2023-03-29T12:38:29.347Z,20.12
2023-03-29T12:39:33.577Z,19.09
2023-03-29T12:40:41.869Z,19.90
2023-03-29T12:41:48.847Z,18.99
2023-03-29T12:42:58.750Z,19.30
2023-03-29T12:44:02.205Z,19.33
2023-03-29T12:45:04.572Z,18.68
2023-03-29T12:46:24.740Z,19.55
2023-03-29T12:47:32.363Z,19.41
2023-03-29T12:48:37.592Z,19.43
2023-03-29T12:49:39.870Z,20.36
2023-03-29T12:50:53.531Z,20.12
2023-03-29T12:51:57.684Z,21.53
2023-03-29T12:53:03.491Z,20.11
2023-03-29T12:54:07.704Z,20.25
2023-03-29T12:55:42.367Z,20.42
2023-03-29T12:56:55.064Z,20.41
2023-03-29T12:58:09.699Z,20.36
2023-03-29T12:59:25.797Z,20.45
2023-03-29T13:00:34.542Z,21.10
2023-03-29T13:01:39.441Z,20.53
2023-03-29T13:02:45.749Z,20.33
2023-03-29T13:03:58.069Z,20.81
2023-03-29T13:05:01.237Z,21.45
2023-03-29T13:06:06.350Z,22.50
2023-03-29T13:07:16.029Z,21.42
2023-03-29T13:08:33.681Z,21.50
2023-03-29T13:10:03.412Z,21.91
2023-03-29T13:11:06.520Z,21.71
2023-03-29T13:12:11.572Z,21.30
2023-03-29T13:13:24.310Z,21.74
2023-03-29T13:14:30.164Z,22.64
2023-03-29T13:15:33.899Z,23.23
2023-03-29T13:16:36.256Z,23.39
2023-03-29T13:18:15.486Z,23.08
2023-03-29T13:19:26.439Z,22.66
2023-03-29T13:20:47.897Z,21.53
2023-03-29T13:22:11.165Z,21.17
2023-03-29T13:23:41.951Z,21.79
2023-03-29T13:25:21.588Z,21.55
2023-03-29T13:26:29.737Z,21.54
2023-03-29T13:27:37.390Z,21.50
2023-03-29T13:29:21.467Z,20.92
2023-03-29T13:30:55.512Z,21.25
2023-03-29T13:32:27.596Z,22.43
2023-03-29T13:33:57.200Z,23.23
2023-03-29T13:35:14.839Z,23.35
2023-03-29T13:36:22.639Z,23.66
2023-03-29T13:37:37.417Z,24.46
2023-03-29T13:38:48.715Z,25.39
2023-03-29T13:39:53.086Z,25.20
2023-03-29T13:41:07.316Z,25.70
2023-03-29T13:42:23.863Z,25.38
2023-03-29T13:43:53.508Z,25.35
2023-03-29T13:45:08.969Z,27.03
2023-03-29T13:46:21.236Z,26.29
2023-03-29T13:47:32.756Z,25.34
2023-03-29T13:48:37.781Z,24.84
2023-03-29T13:49:43.117Z,23.35
2023-03-29T13:50:54.619Z,23.97
2023-03-29T13:52:28.513Z,23.01
2023-03-29T13:53:45.706Z,24.25
2023-03-29T13:55:08.672Z,23.39
2023-03-29T13:56:17.094Z,21.97
2023-03-29T13:57:22.088Z,21.45
2023-03-29T13:58:43.318Z,21.37
2023-03-29T13:59:53.946Z,21.52
2023-03-29T14:01:03.138Z,21.88
2023-03-29T14:02:06.534Z,21.64
2023-03-29T14:03:12.873Z,22.00
2023-03-29T14:04:20.272Z,21.44
2023-03-29T14:05:39.920Z,20.64
2023-03-29T14:06:42.924Z,20.85
2023-03-29T14:07:49.249Z,21.39
2023-03-29T14:08:51.852Z,22.24
2023-03-29T14:09:55.100Z,22.57
2023-03-29T14:11:01.201Z,22.67
2023-03-29T14:12:03.392Z,22.27
2023-03-29T14:13:05.554Z,21.85
2023-03-29T14:14:08.523Z,21.31
2023-03-29T14:15:23.901Z,21.44
2023-03-29T14:16:28.968Z,23.00
2023-03-29T14:17:31.741Z,23.29
2023-03-29T14:18:37.911Z,23.30
2023-03-29T14:19:40.267Z,24.05
2023-03-29T14:20:50.769Z,22.52
2023-03-29T14:21:53.262Z,22.46
2023-03-29T14:22:55.513Z,21.12
2023-03-29T14:24:00.149Z,21.42